sensor_id;sensor_type;location;lat;lon;timestamp;pressure;altitude;pressure_sealevel;temperature;humidity
18527;BME280;9393;42.158;24.748;2022-11-15T00:01:55;100295.78;;;11.02;71.92
18527;BME280;9393;42.158;24.748;2022-11-15T00:05:19;100302.22;;;10.87;72.61
18527;BME280;9393;42.158;24.748;2022-11-15T00:08:41;100300.72;;;10.85;72.64
18527;BME280;9393;42.158;24.748;2022-11-15T00:12:04;100303.44;;;11.04;71.89
18527;BME280;9393;42.158;24.748;2022-11-15T00:15:28;100297.59;;;11.11;71.52
18527;BME280;9393;42.158;24.748;2022-11-15T00:18:51;100301.47;;;11.17;71.56
18527;BME280;9393;42.158;24.748;2022-11-15T00:22:15;100298.38;;;11.02;71.44
18527;BME280;9393;42.158;24.748;2022-11-15T00:25:38;100301.69;;;11.25;70.90
18527;BME280;9393;42.158;24.748;2022-11-15T00:29:00;100303.97;;;11.19;70.80
18527;BME280;9393;42.158;24.748;2022-11-15T00:32:22;100296.34;;;11.27;70.61
18527;BME280;9393;42.158;24.748;2022-11-15T00:35:44;100299.97;;;11.35;70.51
18527;BME280;9393;42.158;24.748;2022-11-15T00:39:08;100299.13;;;11.35;70.27
18527;BME280;9393;42.158;24.748;2022-11-15T00:42:31;100296.81;;;11.00;71.61
18527;BME280;9393;42.158;24.748;2022-11-15T00:45:53;100298.88;;;11.17;71.02
18527;BME280;9393;42.158;24.748;2022-11-15T00:49:16;100289.66;;;11.34;70.34
18527;BME280;9393;42.158;24.748;2022-11-15T00:52:38;100290.41;;;11.04;71.80
18527;BME280;9393;42.158;24.748;2022-11-15T00:56:02;100287.38;;;11.20;71.41
18527;BME280;9393;42.158;24.748;2022-11-15T00:59:27;100276.56;;;10.72;72.97
18527;BME280;9393;42.158;24.748;2022-11-15T01:02:49;100285.69;;;10.34;74.63
18527;BME280;9393;42.158;24.748;2022-11-15T01:06:11;100276.28;;;10.54;73.85
18527;BME280;9393;42.158;24.748;2022-11-15T01:09:33;100283.09;;;10.12;74.98
18527;BME280;9393;42.158;24.748;2022-11-15T01:12:57;100282.16;;;10.67;73.41
18527;BME280;9393;42.158;24.748;2022-11-15T01:16:20;100277.34;;;10.83;72.61
18527;BME280;9393;42.158;24.748;2022-11-15T01:19:42;100275.16;;;10.99;71.80
18527;BME280;9393;42.158;24.748;2022-11-15T01:23:04;100272.53;;;10.99;72.08
18527;BME280;9393;42.158;24.748;2022-11-15T01:26:27;100265.19;;;10.93;72.00
18527;BME280;9393;42.158;24.748;2022-11-15T01:29:51;100269.94;;;11.20;71.35
18527;BME280;9393;42.158;24.748;2022-11-15T01:33:13;100269.91;;;10.99;72.24
18527;BME280;9393;42.158;24.748;2022-11-15T01:36:37;100268.84;;;11.23;71.23
18527;BME280;9393;42.158;24.748;2022-11-15T01:40:19;100267.72;;;10.52;74.20
18527;BME280;9393;42.158;24.748;2022-11-15T01:43:41;100263.59;;;10.81;73.13
18527;BME280;9393;42.158;24.748;2022-11-15T01:47:07;100255.47;;;10.95;72.84
18527;BME280;9393;42.158;24.748;2022-11-15T01:50:31;100254.19;;;11.10;72.30
18527;BME280;9393;42.158;24.748;2022-11-15T01:53:58;100255.59;;;11.14;71.53
18527;BME280;9393;42.158;24.748;2022-11-15T01:57:22;100257.56;;;11.22;71.48
18527;BME280;9393;42.158;24.748;2022-11-15T02:00:44;100256.16;;;11.18;71.80
18527;BME280;9393;42.158;24.748;2022-11-15T02:04:12;100251.56;;;11.31;70.88
18527;BME280;9393;42.158;24.748;2022-11-15T02:07:35;100260.13;;;10.60;73.09
18527;BME280;9393;42.158;24.748;2022-11-15T02:10:58;100258.63;;;10.78;72.93
18527;BME280;9393;42.158;24.748;2022-11-15T02:14:20;100259.19;;;10.61;73.81
18527;BME280;9393;42.158;24.748;2022-11-15T02:17:53;100260.84;;;11.03;72.26
18527;BME280;9393;42.158;24.748;2022-11-15T02:21:26;100252.44;;;11.21;71.39
18527;BME280;9393;42.158;24.748;2022-11-15T02:25:07;100261.06;;;11.32;70.57
18527;BME280;9393;42.158;24.748;2022-11-15T02:28:51;100254.38;;;11.19;71.04
18527;BME280;9393;42.158;24.748;2022-11-15T02:32:19;100256.66;;;11.33;70.23
18527;BME280;9393;42.158;24.748;2022-11-15T02:35:47;100251.25;;;11.25;70.60
18527;BME280;9393;42.158;24.748;2022-11-15T02:39:20;100249.41;;;11.36;70.32
18527;BME280;9393;42.158;24.748;2022-11-15T02:42:50;100247.66;;;11.46;69.92
18527;BME280;9393;42.158;24.748;2022-11-15T02:46:35;100246.59;;;11.28;70.38
18527;BME280;9393;42.158;24.748;2022-11-15T02:50:20;100245.06;;;11.26;70.49
18527;BME280;9393;42.158;24.748;2022-11-15T02:53:43;100239.03;;;11.04;71.52
18527;BME280;9393;42.158;24.748;2022-11-15T02:57:12;100245.53;;;11.10;71.41
18527;BME280;9393;42.158;24.748;2022-11-15T03:00:43;100241.31;;;11.39;70.43
18527;BME280;9393;42.158;24.748;2022-11-15T03:04:21;100232.91;;;11.36;70.47
18527;BME280;9393;42.158;24.748;2022-11-15T03:07:54;100238.47;;;11.52;69.97
18527;BME280;9393;42.158;24.748;2022-11-15T03:11:23;100237.25;;;11.56;69.76
18527;BME280;9393;42.158;24.748;2022-11-15T03:14:53;100237.44;;;11.64;69.30
18527;BME280;9393;42.158;24.748;2022-11-15T03:18:21;100241.81;;;11.63;69.36
18527;BME280;9393;42.158;24.748;2022-11-15T03:21:44;100238.31;;;11.44;70.12
18527;BME280;9393;42.158;24.748;2022-11-15T03:25:16;100240.44;;;11.59;69.42
18527;BME280;9393;42.158;24.748;2022-11-15T03:28:42;100243.19;;;11.58;69.57
18527;BME280;9393;42.158;24.748;2022-11-15T03:32:12;100237.50;;;11.23;71.14
18527;BME280;9393;42.158;24.748;2022-11-15T03:35:39;100227.34;;;11.50;69.96
18527;BME280;9393;42.158;24.748;2022-11-15T03:39:06;100229.56;;;11.54;69.48
18527;BME280;9393;42.158;24.748;2022-11-15T03:42:39;100224.75;;;11.59;68.98
18527;BME280;9393;42.158;24.748;2022-11-15T03:46:13;100224.72;;;11.50;69.11
18527;BME280;9393;42.158;24.748;2022-11-15T03:49:39;100221.50;;;11.37;69.56
18527;BME280;9393;42.158;24.748;2022-11-15T03:53:04;100215.88;;;11.41;69.42
18527;BME280;9393;42.158;24.748;2022-11-15T03:56:27;100213.47;;;11.29;69.68
18527;BME280;9393;42.158;24.748;2022-11-15T03:59:51;100205.84;;;11.37;69.43
18527;BME280;9393;42.158;24.748;2022-11-15T04:03:14;100197.56;;;11.32;69.82
18527;BME280;9393;42.158;24.748;2022-11-15T04:06:39;100201.78;;;11.23;70.08
18527;BME280;9393;42.158;24.748;2022-11-15T04:10:01;100203.19;;;11.27;69.78
18527;BME280;9393;42.158;24.748;2022-11-15T04:13:25;100195.94;;;11.10;70.11
18527;BME280;9393;42.158;24.748;2022-11-15T04:16:49;100200.56;;;11.27;69.60
18527;BME280;9393;42.158;24.748;2022-11-15T04:20:17;100197.41;;;11.24;69.57
18527;BME280;9393;42.158;24.748;2022-11-15T04:23:58;100182.88;;;11.31;69.28
18527;BME280;9393;42.158;24.748;2022-11-15T04:27:36;100183.81;;;11.30;69.28
18527;BME280;9393;42.158;24.748;2022-11-15T04:30:58;100185.59;;;11.29;69.36
18527;BME280;9393;42.158;24.748;2022-11-15T04:34:22;100176.53;;;11.03;70.15
18527;BME280;9393;42.158;24.748;2022-11-15T04:37:44;100184.28;;;10.93;70.36
18527;BME280;9393;42.158;24.748;2022-11-15T04:41:09;100177.75;;;10.99;70.25
18527;BME280;9393;42.158;24.748;2022-11-15T04:44:31;100184.19;;;10.74;70.97
18527;BME280;9393;42.158;24.748;2022-11-15T04:47:54;100184.28;;;10.73;70.34
18527;BME280;9393;42.158;24.748;2022-11-15T04:51:18;100183.22;;;10.54;70.87
18527;BME280;9393;42.158;24.748;2022-11-15T04:54:40;100185.59;;;10.78;70.32
18527;BME280;9393;42.158;24.748;2022-11-15T04:58:03;100174.13;;;10.70;70.57
18527;BME280;9393;42.158;24.748;2022-11-15T05:01:25;100173.34;;;10.99;69.47
18527;BME280;9393;42.158;24.748;2022-11-15T05:04:47;100178.16;;;11.04;69.00
18527;BME280;9393;42.158;24.748;2022-11-15T05:08:10;100175.88;;;11.10;68.85
18527;BME280;9393;42.158;24.748;2022-11-15T05:11:32;100172.91;;;11.25;68.81
18527;BME280;9393;42.158;24.748;2022-11-15T05:14:54;100177.56;;;11.21;68.80
18527;BME280;9393;42.158;24.748;2022-11-15T05:18:18;100183.63;;;11.22;69.00
18527;BME280;9393;42.158;24.748;2022-11-15T05:21:43;100175.88;;;11.10;69.77
18527;BME280;9393;42.158;24.748;2022-11-15T05:25:07;100178.25;;;11.13;69.25
18527;BME280;9393;42.158;24.748;2022-11-15T05:28:32;100179.63;;;11.18;69.19
18527;BME280;9393;42.158;24.748;2022-11-15T05:31:55;100178.56;;;10.99;69.99
18527;BME280;9393;42.158;24.748;2022-11-15T05:35:21;100180.22;;;11.00;69.88
18527;BME280;9393;42.158;24.748;2022-11-15T05:38:48;100178.50;;;11.41;68.88
18527;BME280;9393;42.158;24.748;2022-11-15T05:42:13;100185.28;;;11.53;68.45
18527;BME280;9393;42.158;24.748;2022-11-15T05:45:36;100185.66;;;11.48;68.82
18527;BME280;9393;42.158;24.748;2022-11-15T05:48:59;100179.25;;;11.01;70.80
18527;BME280;9393;42.158;24.748;2022-11-15T05:52:24;100193.50;;;11.18;70.46
18527;BME280;9393;42.158;24.748;2022-11-15T05:55:48;100200.00;;;11.24;70.54
18527;BME280;9393;42.158;24.748;2022-11-15T05:59:15;100206.09;;;11.34;70.19
18527;BME280;9393;42.158;24.748;2022-11-15T06:02:37;100205.81;;;11.67;69.07
18527;BME280;9393;42.158;24.748;2022-11-15T06:06:00;100203.69;;;11.72;68.84
18527;BME280;9393;42.158;24.748;2022-11-15T06:09:22;100212.19;;;11.74;68.51
18527;BME280;9393;42.158;24.748;2022-11-15T06:12:45;100209.88;;;11.81;65.89
18527;BME280;9393;42.158;24.748;2022-11-15T06:16:09;100206.09;;;11.64;67.08
18527;BME280;9393;42.158;24.748;2022-11-15T06:19:31;100207.69;;;11.86;65.74
18527;BME280;9393;42.158;24.748;2022-11-15T06:22:56;100208.09;;;11.81;66.18
18527;BME280;9393;42.158;24.748;2022-11-15T06:26:19;100212.91;;;11.55;66.65
18527;BME280;9393;42.158;24.748;2022-11-15T06:29:41;100209.06;;;10.99;68.18
18527;BME280;9393;42.158;24.748;2022-11-15T06:33:05;100205.47;;;11.00;67.98
18527;BME280;9393;42.158;24.748;2022-11-15T06:36:29;100206.38;;;11.10;68.28
18527;BME280;9393;42.158;24.748;2022-11-15T06:39:51;100211.78;;;11.48;67.69
18527;BME280;9393;42.158;24.748;2022-11-15T06:43:14;100203.97;;;10.97;69.37
18527;BME280;9393;42.158;24.748;2022-11-15T06:46:36;100211.28;;;11.54;67.75
18527;BME280;9393;42.158;24.748;2022-11-15T06:50:02;100214.16;;;11.91;66.57
18527;BME280;9393;42.158;24.748;2022-11-15T06:53:25;100211.81;;;11.79;65.92
18527;BME280;9393;42.158;24.748;2022-11-15T06:56:47;100204.16;;;11.66;65.61
18527;BME280;9393;42.158;24.748;2022-11-15T07:00:10;100213.34;;;11.91;65.41
18527;BME280;9393;42.158;24.748;2022-11-15T07:03:40;100204.94;;;11.87;65.22
18527;BME280;9393;42.158;24.748;2022-11-15T07:07:04;100204.75;;;11.79;65.71
18527;BME280;9393;42.158;24.748;2022-11-15T07:10:27;100200.88;;;12.42;64.21
18527;BME280;9393;42.158;24.748;2022-11-15T07:13:51;100194.97;;;12.59;63.22
18527;BME280;9393;42.158;24.748;2022-11-15T07:17:18;100195.25;;;12.47;63.12
18527;BME280;9393;42.158;24.748;2022-11-15T07:20:40;100194.13;;;12.78;62.65
18527;BME280;9393;42.158;24.748;2022-11-15T07:24:05;100181.13;;;13.15;61.74
18527;BME280;9393;42.158;24.748;2022-11-15T07:27:27;100179.03;;;13.55;60.32
18527;BME280;9393;42.158;24.748;2022-11-15T07:30:49;100184.31;;;13.73;59.60
18527;BME280;9393;42.158;24.748;2022-11-15T07:34:12;100196.94;;;13.87;59.74
18527;BME280;9393;42.158;24.748;2022-11-15T07:37:37;100187.47;;;13.77;59.57
18527;BME280;9393;42.158;24.748;2022-11-15T07:41:04;100184.91;;;13.94;59.53
18527;BME280;9393;42.158;24.748;2022-11-15T07:44:27;100181.34;;;14.13;59.45
18527;BME280;9393;42.158;24.748;2022-11-15T07:47:50;100186.50;;;14.05;57.72
18527;BME280;9393;42.158;24.748;2022-11-15T07:51:12;100183.06;;;14.22;57.15
18527;BME280;9393;42.158;24.748;2022-11-15T07:54:35;100177.81;;;14.22;57.87
18527;BME280;9393;42.158;24.748;2022-11-15T07:58:02;100174.69;;;14.36;56.88
18527;BME280;9393;42.158;24.748;2022-11-15T08:01:25;100179.41;;;14.68;55.99
18527;BME280;9393;42.158;24.748;2022-11-15T08:04:47;100187.56;;;15.42;54.62
18527;BME280;9393;42.158;24.748;2022-11-15T08:08:10;100171.06;;;14.98;53.84
18527;BME280;9393;42.158;24.748;2022-11-15T08:11:33;100174.94;;;15.72;53.05
18527;BME280;9393;42.158;24.748;2022-11-15T08:14:57;100171.03;;;15.92;52.68
18527;BME280;9393;42.158;24.748;2022-11-15T08:18:19;100177.19;;;16.16;52.01
18527;BME280;9393;42.158;24.748;2022-11-15T08:21:41;100166.50;;;16.42;51.58
18527;BME280;9393;42.158;24.748;2022-11-15T08:25:04;100171.78;;;16.58;51.33
18527;BME280;9393;42.158;24.748;2022-11-15T08:28:26;100167.84;;;16.79;51.24
18527;BME280;9393;42.158;24.748;2022-11-15T08:31:51;100168.31;;;17.06;49.52
18527;BME280;9393;42.158;24.748;2022-11-15T08:35:13;100169.56;;;17.27;48.76
18527;BME280;9393;42.158;24.748;2022-11-15T08:38:35;100163.47;;;17.26;48.79
18527;BME280;9393;42.158;24.748;2022-11-15T08:41:57;100160.22;;;17.16;49.30
18527;BME280;9393;42.158;24.748;2022-11-15T08:45:19;100153.91;;;17.72;49.07
18527;BME280;9393;42.158;24.748;2022-11-15T08:48:44;100146.00;;;17.72;48.63
18527;BME280;9393;42.158;24.748;2022-11-15T08:52:06;100152.41;;;17.78;49.17
18527;BME280;9393;42.158;24.748;2022-11-15T08:55:29;100148.25;;;17.83;48.93
18527;BME280;9393;42.158;24.748;2022-11-15T08:58:51;100137.78;;;17.98;49.32
18527;BME280;9393;42.158;24.748;2022-11-15T09:02:20;100132.53;;;17.59;49.96
18527;BME280;9393;42.158;24.748;2022-11-15T09:05:44;100124.56;;;17.75;49.62
18527;BME280;9393;42.158;24.748;2022-11-15T09:09:07;100114.25;;;17.88;49.29
18527;BME280;9393;42.158;24.748;2022-11-15T09:12:29;100110.81;;;18.33;48.77
18527;BME280;9393;42.158;24.748;2022-11-15T09:15:52;100104.00;;;17.93;49.64
18527;BME280;9393;42.158;24.748;2022-11-15T09:19:19;100097.19;;;18.22;49.50
18527;BME280;9393;42.158;24.748;2022-11-15T09:22:43;100087.41;;;18.45;49.36
18527;BME280;9393;42.158;24.748;2022-11-15T09:26:06;100091.34;;;18.11;50.03
18527;BME280;9393;42.158;24.748;2022-11-15T09:29:29;100082.31;;;18.06;50.94
18527;BME280;9393;42.158;24.748;2022-11-15T09:32:51;100078.72;;;18.59;49.74
18527;BME280;9393;42.158;24.748;2022-11-15T09:36:16;100066.25;;;19.11;48.40
18527;BME280;9393;42.158;24.748;2022-11-15T09:39:40;100063.63;;;19.62;47.78
18527;BME280;9393;42.158;24.748;2022-11-15T09:43:26;100059.69;;;19.07;48.86
18527;BME280;9393;42.158;24.748;2022-11-15T09:47:03;100066.34;;;19.33;48.16
18527;BME280;9393;42.158;24.748;2022-11-15T09:50:40;100055.41;;;19.72;46.80
18527;BME280;9393;42.158;24.748;2022-11-15T09:53:52;100053.03;;;19.41;47.97
18527;BME280;9393;42.158;24.748;2022-11-15T09:57:30;100054.47;;;19.58;47.65
18527;BME280;9393;42.158;24.748;2022-11-15T10:00:38;100043.47;;;19.10;48.61
18527;BME280;9393;42.158;24.748;2022-11-15T10:03:49;100039.09;;;19.68;47.49
18527;BME280;9393;42.158;24.748;2022-11-15T10:06:58;100035.41;;;20.11;46.41
18527;BME280;9393;42.158;24.748;2022-11-15T10:10:13;100025.22;;;20.08;46.29
18527;BME280;9393;42.158;24.748;2022-11-15T10:13:23;100031.88;;;19.41;47.72
18527;BME280;9393;42.158;24.748;2022-11-15T10:20:12;100010.94;;;20.31;45.71
18527;BME280;9393;42.158;24.748;2022-11-15T10:23:23;100005.75;;;20.23;46.10
18527;BME280;9393;42.158;24.748;2022-11-15T10:26:27;100008.66;;;19.57;46.86
18527;BME280;9393;42.158;24.748;2022-11-15T10:29:32;100004.75;;;20.24;45.64
18527;BME280;9393;42.158;24.748;2022-11-15T10:32:36;100001.34;;;19.81;46.28
18527;BME280;9393;42.158;24.748;2022-11-15T10:35:40;99990.13;;;19.22;47.38
18527;BME280;9393;42.158;24.748;2022-11-15T10:38:56;99990.25;;;19.71;46.14
18527;BME280;9393;42.158;24.748;2022-11-15T10:42:16;99984.88;;;19.43;47.35
18527;BME280;9393;42.158;24.748;2022-11-15T10:45:27;99973.31;;;18.49;48.82
18527;BME280;9393;42.158;24.748;2022-11-15T10:48:31;99975.56;;;18.38;49.31
18527;BME280;9393;42.158;24.748;2022-11-15T10:51:41;99963.03;;;18.40;48.71
18527;BME280;9393;42.158;24.748;2022-11-15T10:54:47;99964.09;;;18.31;48.90
18527;BME280;9393;42.158;24.748;2022-11-15T10:57:53;99957.34;;;19.01;47.25
18527;BME280;9393;42.158;24.748;2022-11-15T11:01:09;99954.22;;;19.12;46.73
18527;BME280;9393;42.158;24.748;2022-11-15T11:04:13;99954.41;;;18.75;47.27
18527;BME280;9393;42.158;24.748;2022-11-15T11:07:22;99944.00;;;18.88;47.26
18527;BME280;9393;42.158;24.748;2022-11-15T11:10:26;99939.31;;;18.90;47.53
18527;BME280;9393;42.158;24.748;2022-11-15T11:13:50;99936.19;;;19.01;47.68
18527;BME280;9393;42.158;24.748;2022-11-15T11:17:02;99933.66;;;19.29;46.87
18527;BME280;9393;42.158;24.748;2022-11-15T11:20:11;99921.81;;;19.25;46.59
18527;BME280;9393;42.158;24.748;2022-11-15T11:23:36;99924.69;;;19.45;46.42
18527;BME280;9393;42.158;24.748;2022-11-15T11:26:46;99916.81;;;19.79;45.62
18527;BME280;9393;42.158;24.748;2022-11-15T11:30:08;99905.03;;;19.54;46.67
18527;BME280;9393;42.158;24.748;2022-11-15T11:33:17;99899.09;;;19.52;46.89
18527;BME280;9393;42.158;24.748;2022-11-15T11:36:26;99906.06;;;19.38;47.17
18527;BME280;9393;42.158;24.748;2022-11-15T11:39:39;99898.66;;;19.27;47.51
18527;BME280;9393;42.158;24.748;2022-11-15T11:42:52;99883.66;;;18.92;48.57
18527;BME280;9393;42.158;24.748;2022-11-15T11:46:14;99884.47;;;19.13;48.15
18527;BME280;9393;42.158;24.748;2022-11-15T11:49:26;99880.19;;;18.91;48.00
18527;BME280;9393;42.158;24.748;2022-11-15T11:52:34;99881.75;;;18.86;47.38
18527;BME280;9393;42.158;24.748;2022-11-15T11:55:44;99877.75;;;19.11;46.92
18527;BME280;9393;42.158;24.748;2022-11-15T11:58:50;99874.44;;;18.88;46.89
18527;BME280;9393;42.158;24.748;2022-11-15T12:01:57;99869.09;;;18.81;47.17
18527;BME280;9393;42.158;24.748;2022-11-15T12:05:13;99860.94;;;18.97;47.33
18527;BME280;9393;42.158;24.748;2022-11-15T12:08:29;99859.53;;;18.80;47.79
18527;BME280;9393;42.158;24.748;2022-11-15T12:11:43;99850.84;;;18.65;47.97
18527;BME280;9393;42.158;24.748;2022-11-15T12:14:55;99851.38;;;18.46;48.84
18527;BME280;9393;42.158;24.748;2022-11-15T12:18:00;99842.19;;;18.56;48.73
18527;BME280;9393;42.158;24.748;2022-11-15T12:21:13;99832.66;;;18.26;48.98
18527;BME280;9393;42.158;24.748;2022-11-15T12:24:22;99830.47;;;18.30;49.39
18527;BME280;9393;42.158;24.748;2022-11-15T12:27:32;99829.66;;;18.00;49.91
18527;BME280;9393;42.158;24.748;2022-11-15T12:30:44;99828.28;;;18.18;49.36
18527;BME280;9393;42.158;24.748;2022-11-15T12:33:55;99827.59;;;18.10;49.94
18527;BME280;9393;42.158;24.748;2022-11-15T12:41:15;99822.75;;;17.99;49.08
18527;BME280;9393;42.158;24.748;2022-11-15T12:48:46;99809.25;;;17.79;49.78
18527;BME280;9393;42.158;24.748;2022-11-15T12:52:06;99812.81;;;17.86;49.99
18527;BME280;9393;42.158;24.748;2022-11-15T12:55:29;99800.81;;;17.69;49.78
18527;BME280;9393;42.158;24.748;2022-11-15T12:58:42;99791.63;;;17.65;50.72
18527;BME280;9393;42.158;24.748;2022-11-15T13:02:17;99786.44;;;17.57;50.22
18527;BME280;9393;42.158;24.748;2022-11-15T13:09:02;99778.50;;;17.86;50.26
18527;BME280;9393;42.158;24.748;2022-11-15T13:12:08;99783.47;;;17.89;49.71
18527;BME280;9393;42.158;24.748;2022-11-15T13:15:32;99782.88;;;17.94;49.98
18527;BME280;9393;42.158;24.748;2022-11-15T13:18:53;99771.34;;;17.95;49.69
18527;BME280;9393;42.158;24.748;2022-11-15T13:21:57;99774.63;;;17.82;50.13
18527;BME280;9393;42.158;24.748;2022-11-15T13:25:26;99778.91;;;17.69;51.41
18527;BME280;9393;42.158;24.748;2022-11-15T13:28:33;99763.28;;;17.30;51.99
18527;BME280;9393;42.158;24.748;2022-11-15T13:31:43;99764.75;;;17.47;51.70
18527;BME280;9393;42.158;24.748;2022-11-15T13:34:49;99760.91;;;17.35;51.65
18527;BME280;9393;42.158;24.748;2022-11-15T13:37:56;99760.53;;;16.86;53.31
18527;BME280;9393;42.158;24.748;2022-11-15T13:41:13;99762.56;;;16.98;53.29
18527;BME280;9393;42.158;24.748;2022-11-15T13:44:20;99758.53;;;16.65;54.29
18527;BME280;9393;42.158;24.748;2022-11-15T13:47:27;99757.47;;;16.74;54.24
18527;BME280;9393;42.158;24.748;2022-11-15T13:50:34;99762.56;;;16.45;55.35
18527;BME280;9393;42.158;24.748;2022-11-15T13:53:42;99753.03;;;16.75;54.78
18527;BME280;9393;42.158;24.748;2022-11-15T13:56:51;99749.28;;;16.69;55.08
18527;BME280;9393;42.158;24.748;2022-11-15T14:00:00;99754.25;;;16.64;55.20
18527;BME280;9393;42.158;24.748;2022-11-15T14:03:17;99751.38;;;16.51;55.25
18527;BME280;9393;42.158;24.748;2022-11-15T14:06:23;99743.25;;;16.30;55.67
18527;BME280;9393;42.158;24.748;2022-11-15T14:09:35;99744.13;;;16.22;55.93
18527;BME280;9393;42.158;24.748;2022-11-15T14:12:50;99739.72;;;16.14;56.42
18527;BME280;9393;42.158;24.748;2022-11-15T14:15:54;99740.28;;;16.02;57.01
18527;BME280;9393;42.158;24.748;2022-11-15T14:18:59;99740.47;;;15.53;58.20
18527;BME280;9393;42.158;24.748;2022-11-15T14:22:15;99743.25;;;15.52;58.76
18527;BME280;9393;42.158;24.748;2022-11-15T14:25:20;99742.44;;;15.43;59.04
18527;BME280;9393;42.158;24.748;2022-11-15T14:28:31;99742.63;;;15.26;59.89
18527;BME280;9393;42.158;24.748;2022-11-15T14:31:38;99738.00;;;15.28;59.97
18527;BME280;9393;42.158;24.748;2022-11-15T14:34:46;99741.47;;;14.80;61.32
18527;BME280;9393;42.158;24.748;2022-11-15T14:37:50;99736.06;;;14.97;60.91
18527;BME280;9393;42.158;24.748;2022-11-15T14:40:54;99738.38;;;14.92;61.35
18527;BME280;9393;42.158;24.748;2022-11-15T14:43:58;99735.09;;;14.98;61.29
18527;BME280;9393;42.158;24.748;2022-11-15T14:47:02;99731.97;;;14.87;62.21
18527;BME280;9393;42.158;24.748;2022-11-15T14:50:11;99733.09;;;14.76;62.46
18527;BME280;9393;42.158;24.748;2022-11-15T14:53:16;99725.41;;;14.75;62.59
18527;BME280;9393;42.158;24.748;2022-11-15T14:56:20;99726.56;;;14.64;63.35
18527;BME280;9393;42.158;24.748;2022-11-15T14:59:23;99726.91;;;14.85;62.72
18527;BME280;9393;42.158;24.748;2022-11-15T15:02:27;99730.00;;;14.81;62.63
18527;BME280;9393;42.158;24.748;2022-11-15T15:05:34;99731.16;;;14.70;63.14
18527;BME280;9393;42.158;24.748;2022-11-15T15:08:38;99722.63;;;14.84;62.88
18527;BME280;9393;42.158;24.748;2022-11-15T15:11:41;99733.09;;;14.76;62.73
18527;BME280;9393;42.158;24.748;2022-11-15T15:14:48;99725.41;;;14.83;62.85
18527;BME280;9393;42.158;24.748;2022-11-15T15:17:52;99729.50;;;14.77;62.71
18527;BME280;9393;42.158;24.748;2022-11-15T15:20:58;99726.88;;;14.69;63.21
18527;BME280;9393;42.158;24.748;2022-11-15T15:24:05;99729.78;;;14.42;64.83
18527;BME280;9393;42.158;24.748;2022-11-15T15:27:09;99730.72;;;14.16;65.82
18527;BME280;9393;42.158;24.748;2022-11-15T15:30:13;99739.88;;;14.21;65.76
18527;BME280;9393;42.158;24.748;2022-11-15T15:33:17;99738.19;;;14.03;66.24
18527;BME280;9393;42.158;24.748;2022-11-15T15:36:22;99739.50;;;14.07;66.11
18527;BME280;9393;42.158;24.748;2022-11-15T15:39:25;99737.56;;;14.17;66.00
18527;BME280;9393;42.158;24.748;2022-11-15T15:42:29;99740.72;;;14.29;64.94
18527;BME280;9393;42.158;24.748;2022-11-15T15:45:33;99742.34;;;14.22;65.20
18527;BME280;9393;42.158;24.748;2022-11-15T15:48:38;99737.56;;;14.09;65.85
18527;BME280;9393;42.158;24.748;2022-11-15T15:51:44;99734.28;;;14.07;66.29
18527;BME280;9393;42.158;24.748;2022-11-15T15:54:47;99733.56;;;13.89;66.43
18527;BME280;9393;42.158;24.748;2022-11-15T15:57:51;99731.25;;;13.86;66.70
18527;BME280;9393;42.158;24.748;2022-11-15T16:00:56;99734.69;;;13.79;67.18
18527;BME280;9393;42.158;24.748;2022-11-15T16:04:00;99729.44;;;13.79;67.31
18527;BME280;9393;42.158;24.748;2022-11-15T16:07:07;99730.47;;;13.60;68.03
18527;BME280;9393;42.158;24.748;2022-11-15T16:10:21;99733.25;;;13.58;67.96
18527;BME280;9393;42.158;24.748;2022-11-15T16:13:27;99733.75;;;13.62;67.46
18527;BME280;9393;42.158;24.748;2022-11-15T16:16:30;99731.25;;;13.86;66.75
18527;BME280;9393;42.158;24.748;2022-11-15T16:19:34;99728.53;;;13.96;66.39
18527;BME280;9393;42.158;24.748;2022-11-15T16:22:40;99729.25;;;13.80;66.84
18527;BME280;9393;42.158;24.748;2022-11-15T16:25:46;99726.13;;;13.69;67.30
18527;BME280;9393;42.158;24.748;2022-11-15T16:28:52;99720.31;;;13.57;67.58
18527;BME280;9393;42.158;24.748;2022-11-15T16:31:56;99724.53;;;13.50;67.76
18527;BME280;9393;42.158;24.748;2022-11-15T16:35:00;99706.66;;;13.45;68.33
18527;BME280;9393;42.158;24.748;2022-11-15T16:38:07;99708.41;;;13.37;68.65
18527;BME280;9393;42.158;24.748;2022-11-15T16:41:14;99716.56;;;13.59;67.67
18527;BME280;9393;42.158;24.748;2022-11-15T16:44:20;99721.97;;;13.58;67.64
18527;BME280;9393;42.158;24.748;2022-11-15T16:47:24;99717.38;;;13.60;67.76
18527;BME280;9393;42.158;24.748;2022-11-15T16:50:29;99720.81;;;13.60;67.49
18527;BME280;9393;42.158;24.748;2022-11-15T16:53:37;99719.69;;;13.63;67.26
18527;BME280;9393;42.158;24.748;2022-11-15T16:56:41;99722.84;;;13.41;68.27
18527;BME280;9393;42.158;24.748;2022-11-15T16:59:45;99725.25;;;13.60;67.53
18527;BME280;9393;42.158;24.748;2022-11-15T17:02:50;99717.06;;;13.63;67.27
18527;BME280;9393;42.158;24.748;2022-11-15T17:05:57;99712.19;;;13.68;67.01
18527;BME280;9393;42.158;24.748;2022-11-15T17:09:02;99713.00;;;13.69;66.92
18527;BME280;9393;42.158;24.748;2022-11-15T17:12:06;99714.16;;;13.74;66.84
18527;BME280;9393;42.158;24.748;2022-11-15T17:15:11;99712.25;;;13.50;67.87
18527;BME280;9393;42.158;24.748;2022-11-15T17:18:15;99706.63;;;13.71;67.17
18527;BME280;9393;42.158;24.748;2022-11-15T17:21:20;99709.38;;;13.61;67.48
18527;BME280;9393;42.158;24.748;2022-11-15T17:24:25;99700.59;;;13.45;67.92
18527;BME280;9393;42.158;24.748;2022-11-15T17:27:29;99704.78;;;13.30;69.00
18527;BME280;9393;42.158;24.748;2022-11-15T17:30:33;99698.19;;;13.26;68.98
18527;BME280;9393;42.158;24.748;2022-11-15T17:33:37;99694.13;;;13.31;68.59
18527;BME280;9393;42.158;24.748;2022-11-15T17:36:41;99687.06;;;13.24;68.93